Nasa Shuttle Landing Facility Airport
KTTS : now visible

Airfield :











YOU CAN JOIN US ON...

 
LOGIN :

Register | Disclaimer

   EN    FR    IT 

 









Legend :    VFR   Marginal VFR   IFR   Intensive IFR   Very Intensive IFR
Visi :
Ceiling :
>= 8 km
>= 3000ft
5 to 8 km
1000 to 3000 ft
1500m to 5 km
500 to 1000 ft
800 to 1500m
200 to 500 ft
< 800m
< 200 ft
Symbols :   Thunderstorms  Fog  Heavy snow  Heavy precipitations  Wind > 20 kt






- Airport Elevation : 10 ft


KTTS - Nasa Shuttle Landing Facility

CURRENT METAR :
  • 120027Z AUTO 34007G14KT 10SM OVC007 20/19 A3024 RMK AO2 DZB17E27 CIG 006 RWY15 CIG 006 RWY15/33 SLPNO FZRANO $

EXPIRED METARs :
  • 120011Z AUTO 35008KT 10SM OVC007 21/19 A3024 RMK AO2 CIG 006V008 CIG 006 RWY15 CIG 006 RWY15/33 SLPNO FZRANO $
  • 112356Z AUTO 35008G15KT 10SM BKN008 BKN011 OVC028 21/19 A3024 RMK AO2 CIG 008V010 SLPNO T02050191 10227 20202 52013 FZRANO $
  • 112256Z AUTO 35005KT 10SM OVC012 21/19 A3023 RMK AO2 SLPNO T02060191 FZRANO $
  • 112246Z AUTO 36006KT 10SM OVC012 20/19 A3022 RMK AO2 CIG 009V014 SLPNO FZRANO $
  • 112226Z AUTO 36007G14KT 10SM OVC009 20/19 A3022 RMK AO2 SLPNO FZRANO $
  • 112206Z AUTO 36008G15KT 10SM OVC010 21/19 A3021 RMK AO2 CIG 009 RWY15 CIG 009 RWY15/33 SLPNO FZRANO $
  • 112156Z AUTO 36009G18KT 10SM OVC009 21/19 A3021 RMK AO2 SLP234 T02070188 FZRANO $

Expired Forecast.



MET'MAP, your aeronautical weather chart ! - Copyright ORBIFLY December 2007 - Disclaimer

ORBIFLY MET'MAP TEAM :

Programming & Development : Alexandra Zaïnal
Concept & original design : Baudouin d'Aumeries
Assistance for programming : Marc-Olivier Méhu
Technical & hardware support : Manuel Goepfert

Contact : metmap@orbifly.com




SOURCES & CREDITS :

   NOAA       Earth
Advisory